sensor_id;sensor_type;location;lat;lon;timestamp;P1;durP1;ratioP1;P2;durP2;ratioP2
24745;SDS011;12845;52.042;6.838;2022-12-24T00:01:16;20.80;;;4.00;;
24745;SDS011;12845;52.042;6.838;2022-12-24T00:03:42;25.52;;;4.30;;
24745;SDS011;12845;52.042;6.838;2022-12-24T00:06:08;15.57;;;4.03;;
24745;SDS011;12845;52.042;6.838;2022-12-24T00:08:34;17.63;;;4.05;;
24745;SDS011;12845;52.042;6.838;2022-12-24T00:10:59;20.88;;;4.22;;
24745;SDS011;12845;52.042;6.838;2022-12-24T00:13:25;24.45;;;5.35;;
24745;SDS011;12845;52.042;6.838;2022-12-24T00:15:50;18.42;;;4.20;;
24745;SDS011;12845;52.042;6.838;2022-12-24T00:18:16;19.85;;;3.70;;
24745;SDS011;12845;52.042;6.838;2022-12-24T00:20:44;24.35;;;4.82;;
24745;SDS011;12845;52.042;6.838;2022-12-24T00:23:11;18.27;;;4.63;;
24745;SDS011;12845;52.042;6.838;2022-12-24T00:25:37;21.25;;;4.70;;
24745;SDS011;12845;52.042;6.838;2022-12-24T00:28:02;24.98;;;4.72;;
24745;SDS011;12845;52.042;6.838;2022-12-24T00:30:27;20.33;;;4.55;;
24745;SDS011;12845;52.042;6.838;2022-12-24T00:32:53;26.55;;;5.38;;
24745;SDS011;12845;52.042;6.838;2022-12-24T00:35:18;19.90;;;4.13;;
24745;SDS011;12845;52.042;6.838;2022-12-24T00:37:45;23.42;;;4.85;;
24745;SDS011;12845;52.042;6.838;2022-12-24T00:40:12;20.92;;;4.13;;
24745;SDS011;12845;52.042;6.838;2022-12-24T00:42:38;20.38;;;4.65;;
24745;SDS011;12845;52.042;6.838;2022-12-24T00:45:03;20.90;;;4.85;;
24745;SDS011;12845;52.042;6.838;2022-12-24T00:47:29;25.38;;;4.72;;
24745;SDS011;12845;52.042;6.838;2022-12-24T00:49:54;25.17;;;4.93;;
24745;SDS011;12845;52.042;6.838;2022-12-24T00:52:19;16.58;;;3.30;;
24745;SDS011;12845;52.042;6.838;2022-12-24T00:54:44;15.05;;;3.25;;
24745;SDS011;12845;52.042;6.838;2022-12-24T00:57:10;26.52;;;5.80;;
24745;SDS011;12845;52.042;6.838;2022-12-24T00:59:35;20.23;;;4.53;;
24745;SDS011;12845;52.042;6.838;2022-12-24T01:02:01;27.63;;;3.78;;
24745;SDS011;12845;52.042;6.838;2022-12-24T01:04:26;20.65;;;4.40;;
24745;SDS011;12845;52.042;6.838;2022-12-24T01:07:10;15.18;;;3.47;;
24745;SDS011;12845;52.042;6.838;2022-12-24T01:09:35;23.75;;;4.18;;
24745;SDS011;12845;52.042;6.838;2022-12-24T01:12:00;29.88;;;5.55;;
24745;SDS011;12845;52.042;6.838;2022-12-24T01:14:26;23.77;;;3.70;;
24745;SDS011;12845;52.042;6.838;2022-12-24T01:16:51;21.95;;;4.82;;
24745;SDS011;12845;52.042;6.838;2022-12-24T01:19:16;23.52;;;4.10;;
24745;SDS011;12845;52.042;6.838;2022-12-24T01:21:42;23.10;;;5.53;;
24745;SDS011;12845;52.042;6.838;2022-12-24T01:24:09;28.48;;;4.25;;
24745;SDS011;12845;52.042;6.838;2022-12-24T01:26:38;19.48;;;3.75;;
24745;SDS011;12845;52.042;6.838;2022-12-24T01:29:04;20.73;;;3.67;;
24745;SDS011;12845;52.042;6.838;2022-12-24T01:31:29;26.83;;;5.40;;
24745;SDS011;12845;52.042;6.838;2022-12-24T01:33:54;20.17;;;4.63;;
24745;SDS011;12845;52.042;6.838;2022-12-24T01:36:20;24.33;;;3.67;;
24745;SDS011;12845;52.042;6.838;2022-12-24T01:38:45;19.65;;;4.10;;
24745;SDS011;12845;52.042;6.838;2022-12-24T01:41:18;19.60;;;4.32;;
24745;SDS011;12845;52.042;6.838;2022-12-24T01:46:41;31.83;;;5.35;;
24745;SDS011;12845;52.042;6.838;2022-12-24T01:49:07;26.45;;;5.15;;
24745;SDS011;12845;52.042;6.838;2022-12-24T01:51:59;19.27;;;4.25;;
24745;SDS011;12845;52.042;6.838;2022-12-24T01:54:27;22.80;;;3.83;;
24745;SDS011;12845;52.042;6.838;2022-12-24T01:56:57;22.58;;;4.72;;
24745;SDS011;12845;52.042;6.838;2022-12-24T01:59:23;23.45;;;4.07;;
24745;SDS011;12845;52.042;6.838;2022-12-24T02:01:48;24.92;;;5.45;;
24745;SDS011;12845;52.042;6.838;2022-12-24T02:04:27;26.20;;;5.18;;
24745;SDS011;12845;52.042;6.838;2022-12-24T02:06:58;29.42;;;5.05;;
24745;SDS011;12845;52.042;6.838;2022-12-24T02:09:23;20.80;;;4.70;;
24745;SDS011;12845;52.042;6.838;2022-12-24T02:11:49;24.83;;;3.53;;
24745;SDS011;12845;52.042;6.838;2022-12-24T02:14:14;28.67;;;4.72;;
24745;SDS011;12845;52.042;6.838;2022-12-24T02:16:44;29.50;;;4.75;;
24745;SDS011;12845;52.042;6.838;2022-12-24T02:19:33;22.55;;;5.50;;
24745;SDS011;12845;52.042;6.838;2022-12-24T02:22:15;28.05;;;6.18;;
24745;SDS011;12845;52.042;6.838;2022-12-24T02:25:02;27.20;;;5.63;;
24745;SDS011;12845;52.042;6.838;2022-12-24T02:30:17;33.47;;;6.68;;
24745;SDS011;12845;52.042;6.838;2022-12-24T02:32:52;26.42;;;3.90;;
24745;SDS011;12845;52.042;6.838;2022-12-24T02:38:14;29.85;;;4.22;;
24745;SDS011;12845;52.042;6.838;2022-12-24T02:40:48;22.65;;;3.97;;
24745;SDS011;12845;52.042;6.838;2022-12-24T02:43:38;18.95;;;5.22;;
24745;SDS011;12845;52.042;6.838;2022-12-24T02:46:15;23.33;;;5.50;;
24745;SDS011;12845;52.042;6.838;2022-12-24T02:48:45;21.63;;;5.07;;
24745;SDS011;12845;52.042;6.838;2022-12-24T02:51:12;29.67;;;6.65;;
24745;SDS011;12845;52.042;6.838;2022-12-24T02:53:39;28.67;;;5.07;;
24745;SDS011;12845;52.042;6.838;2022-12-24T02:56:14;28.40;;;5.68;;
24745;SDS011;12845;52.042;6.838;2022-12-24T03:07:57;29.42;;;5.53;;
24745;SDS011;12845;52.042;6.838;2022-12-24T03:13:08;22.15;;;4.72;;
24745;SDS011;12845;52.042;6.838;2022-12-24T03:15:37;25.00;;;6.32;;
24745;SDS011;12845;52.042;6.838;2022-12-24T03:18:03;30.52;;;6.35;;
24745;SDS011;12845;52.042;6.838;2022-12-24T03:20:46;27.73;;;4.90;;
24745;SDS011;12845;52.042;6.838;2022-12-24T03:23:13;22.40;;;5.35;;
24745;SDS011;12845;52.042;6.838;2022-12-24T03:25:39;21.75;;;4.22;;
24745;SDS011;12845;52.042;6.838;2022-12-24T03:28:07;20.17;;;3.80;;
24745;SDS011;12845;52.042;6.838;2022-12-24T03:30:38;30.23;;;5.43;;
24745;SDS011;12845;52.042;6.838;2022-12-24T03:33:07;27.20;;;5.03;;
24745;SDS011;12845;52.042;6.838;2022-12-24T03:35:33;21.45;;;4.68;;
24745;SDS011;12845;52.042;6.838;2022-12-24T03:37:58;25.13;;;5.05;;
24745;SDS011;12845;52.042;6.838;2022-12-24T03:40:24;21.63;;;4.38;;
24745;SDS011;12845;52.042;6.838;2022-12-24T03:42:49;20.17;;;4.15;;
24745;SDS011;12845;52.042;6.838;2022-12-24T03:45:14;21.33;;;4.03;;
24745;SDS011;12845;52.042;6.838;2022-12-24T03:47:40;27.95;;;4.40;;
24745;SDS011;12845;52.042;6.838;2022-12-24T03:50:05;25.60;;;5.03;;
24745;SDS011;12845;52.042;6.838;2022-12-24T03:52:31;28.38;;;4.93;;
24745;SDS011;12845;52.042;6.838;2022-12-24T03:54:57;26.20;;;5.00;;
24745;SDS011;12845;52.042;6.838;2022-12-24T03:57:22;20.75;;;3.60;;
24745;SDS011;12845;52.042;6.838;2022-12-24T03:59:48;25.92;;;4.15;;
24745;SDS011;12845;52.042;6.838;2022-12-24T04:02:13;26.05;;;4.70;;
24745;SDS011;12845;52.042;6.838;2022-12-24T04:04:38;22.98;;;5.70;;
24745;SDS011;12845;52.042;6.838;2022-12-24T04:07:04;25.02;;;4.57;;
24745;SDS011;12845;52.042;6.838;2022-12-24T04:09:30;21.10;;;4.28;;
24745;SDS011;12845;52.042;6.838;2022-12-24T04:11:56;20.55;;;3.83;;
24745;SDS011;12845;52.042;6.838;2022-12-24T04:14:21;28.60;;;4.13;;
24745;SDS011;12845;52.042;6.838;2022-12-24T04:16:46;20.92;;;4.07;;
24745;SDS011;12845;52.042;6.838;2022-12-24T04:19:12;30.10;;;4.35;;
24745;SDS011;12845;52.042;6.838;2022-12-24T04:21:37;24.20;;;5.88;;
24745;SDS011;12845;52.042;6.838;2022-12-24T04:24:02;26.02;;;4.68;;
24745;SDS011;12845;52.042;6.838;2022-12-24T04:26:28;26.35;;;5.55;;
24745;SDS011;12845;52.042;6.838;2022-12-24T04:28:53;19.13;;;4.68;;
24745;SDS011;12845;52.042;6.838;2022-12-24T04:31:19;30.20;;;6.93;;
24745;SDS011;12845;52.042;6.838;2022-12-24T04:33:44;28.58;;;5.25;;
24745;SDS011;12845;52.042;6.838;2022-12-24T04:36:14;26.13;;;4.10;;
24745;SDS011;12845;52.042;6.838;2022-12-24T04:38:43;33.22;;;5.68;;
24745;SDS011;12845;52.042;6.838;2022-12-24T04:41:10;26.23;;;5.43;;
24745;SDS011;12845;52.042;6.838;2022-12-24T04:43:37;26.83;;;5.30;;
24745;SDS011;12845;52.042;6.838;2022-12-24T04:46:07;29.40;;;6.93;;
24745;SDS011;12845;52.042;6.838;2022-12-24T04:48:32;32.85;;;6.20;;
24745;SDS011;12845;52.042;6.838;2022-12-24T04:50:59;28.98;;;6.93;;
24745;SDS011;12845;52.042;6.838;2022-12-24T04:53:26;25.98;;;7.05;;
24745;SDS011;12845;52.042;6.838;2022-12-24T04:55:51;27.58;;;5.28;;
24745;SDS011;12845;52.042;6.838;2022-12-24T04:58:17;25.98;;;6.03;;
24745;SDS011;12845;52.042;6.838;2022-12-24T05:00:42;27.05;;;6.55;;
24745;SDS011;12845;52.042;6.838;2022-12-24T05:03:07;38.53;;;8.75;;
24745;SDS011;12845;52.042;6.838;2022-12-24T05:05:33;34.45;;;8.07;;
24745;SDS011;12845;52.042;6.838;2022-12-24T05:07:58;24.48;;;7.13;;
24745;SDS011;12845;52.042;6.838;2022-12-24T05:10:24;34.40;;;8.35;;
24745;SDS011;12845;52.042;6.838;2022-12-24T05:12:49;27.83;;;7.30;;
24745;SDS011;12845;52.042;6.838;2022-12-24T05:15:14;26.48;;;6.85;;
24745;SDS011;12845;52.042;6.838;2022-12-24T05:17:40;31.88;;;8.65;;
24745;SDS011;12845;52.042;6.838;2022-12-24T05:20:05;34.45;;;8.63;;
24745;SDS011;12845;52.042;6.838;2022-12-24T05:22:31;34.90;;;9.20;;
24745;SDS011;12845;52.042;6.838;2022-12-24T05:25:15;37.15;;;9.68;;
24745;SDS011;12845;52.042;6.838;2022-12-24T05:27:59;23.92;;;7.25;;
24745;SDS011;12845;52.042;6.838;2022-12-24T05:30:24;36.03;;;10.05;;
24745;SDS011;12845;52.042;6.838;2022-12-24T05:32:49;36.58;;;9.50;;
24745;SDS011;12845;52.042;6.838;2022-12-24T05:35:14;30.70;;;8.85;;
24745;SDS011;12845;52.042;6.838;2022-12-24T05:37:40;33.70;;;9.18;;
24745;SDS011;12845;52.042;6.838;2022-12-24T05:40:05;34.63;;;9.20;;
24745;SDS011;12845;52.042;6.838;2022-12-24T05:42:31;31.25;;;9.55;;
24745;SDS011;12845;52.042;6.838;2022-12-24T05:44:56;37.42;;;10.30;;
24745;SDS011;12845;52.042;6.838;2022-12-24T05:47:22;35.85;;;10.80;;
24745;SDS011;12845;52.042;6.838;2022-12-24T05:49:47;30.83;;;9.32;;
24745;SDS011;12845;52.042;6.838;2022-12-24T05:52:12;35.05;;;9.98;;
24745;SDS011;12845;52.042;6.838;2022-12-24T05:54:38;31.63;;;11.07;;
24745;SDS011;12845;52.042;6.838;2022-12-24T05:57:03;27.63;;;8.73;;
24745;SDS011;12845;52.042;6.838;2022-12-24T05:59:28;35.97;;;10.07;;
24745;SDS011;12845;52.042;6.838;2022-12-24T06:01:54;38.50;;;11.20;;
24745;SDS011;12845;52.042;6.838;2022-12-24T06:04:19;36.13;;;10.43;;
24745;SDS011;12845;52.042;6.838;2022-12-24T06:06:44;32.75;;;10.43;;
24745;SDS011;12845;52.042;6.838;2022-12-24T06:09:10;37.35;;;12.52;;
24745;SDS011;12845;52.042;6.838;2022-12-24T06:11:35;35.67;;;12.82;;
24745;SDS011;12845;52.042;6.838;2022-12-24T06:14:01;28.75;;;11.82;;
24745;SDS011;12845;52.042;6.838;2022-12-24T06:16:27;38.58;;;11.88;;
24745;SDS011;12845;52.042;6.838;2022-12-24T06:18:52;40.95;;;13.27;;
24745;SDS011;12845;52.042;6.838;2022-12-24T06:21:18;33.38;;;10.52;;
24745;SDS011;12845;52.042;6.838;2022-12-24T06:23:44;36.17;;;9.35;;
24745;SDS011;12845;52.042;6.838;2022-12-24T06:26:10;42.22;;;13.15;;
24745;SDS011;12845;52.042;6.838;2022-12-24T06:28:44;39.78;;;10.95;;
24745;SDS011;12845;52.042;6.838;2022-12-24T06:31:11;43.50;;;13.48;;
24745;SDS011;12845;52.042;6.838;2022-12-24T06:33:38;37.40;;;13.25;;
24745;SDS011;12845;52.042;6.838;2022-12-24T06:36:07;37.10;;;11.60;;
24745;SDS011;12845;52.042;6.838;2022-12-24T06:38:34;35.72;;;11.80;;
24745;SDS011;12845;52.042;6.838;2022-12-24T06:41:03;38.67;;;11.30;;
24745;SDS011;12845;52.042;6.838;2022-12-24T06:43:30;34.00;;;12.25;;
24745;SDS011;12845;52.042;6.838;2022-12-24T06:45:55;37.65;;;13.13;;
24745;SDS011;12845;52.042;6.838;2022-12-24T06:48:20;33.35;;;12.55;;
24745;SDS011;12845;52.042;6.838;2022-12-24T06:50:46;51.58;;;15.38;;
24745;SDS011;12845;52.042;6.838;2022-12-24T06:53:11;43.83;;;13.43;;
24745;SDS011;12845;52.042;6.838;2022-12-24T06:55:36;31.90;;;10.55;;
24745;SDS011;12845;52.042;6.838;2022-12-24T06:58:02;41.97;;;13.23;;
24745;SDS011;12845;52.042;6.838;2022-12-24T07:00:28;33.88;;;13.52;;
24745;SDS011;12845;52.042;6.838;2022-12-24T07:02:53;45.05;;;15.40;;
24745;SDS011;12845;52.042;6.838;2022-12-24T07:05:18;32.15;;;12.63;;
24745;SDS011;12845;52.042;6.838;2022-12-24T07:07:44;44.45;;;16.17;;
24745;SDS011;12845;52.042;6.838;2022-12-24T07:10:10;41.78;;;15.75;;
24745;SDS011;12845;52.042;6.838;2022-12-24T07:12:37;39.83;;;13.32;;
24745;SDS011;12845;52.042;6.838;2022-12-24T07:15:03;33.67;;;12.93;;
24745;SDS011;12845;52.042;6.838;2022-12-24T07:17:28;37.05;;;14.18;;
24745;SDS011;12845;52.042;6.838;2022-12-24T07:19:54;45.42;;;14.63;;
24745;SDS011;12845;52.042;6.838;2022-12-24T07:22:19;44.20;;;15.30;;
24745;SDS011;12845;52.042;6.838;2022-12-24T07:24:44;41.60;;;14.95;;
24745;SDS011;12845;52.042;6.838;2022-12-24T07:27:10;49.63;;;16.67;;
24745;SDS011;12845;52.042;6.838;2022-12-24T07:29:35;40.75;;;15.10;;
24745;SDS011;12845;52.042;6.838;2022-12-24T07:32:00;43.85;;;17.17;;
24745;SDS011;12845;52.042;6.838;2022-12-24T07:34:26;37.38;;;16.40;;
24745;SDS011;12845;52.042;6.838;2022-12-24T07:36:51;47.03;;;18.40;;
24745;SDS011;12845;52.042;6.838;2022-12-24T07:39:16;41.78;;;15.32;;
24745;SDS011;12845;52.042;6.838;2022-12-24T07:41:42;41.67;;;14.88;;
24745;SDS011;12845;52.042;6.838;2022-12-24T07:44:10;41.65;;;15.48;;
24745;SDS011;12845;52.042;6.838;2022-12-24T07:46:37;39.08;;;13.73;;
24745;SDS011;12845;52.042;6.838;2022-12-24T07:49:02;45.63;;;16.23;;
24745;SDS011;12845;52.042;6.838;2022-12-24T07:51:28;29.00;;;11.88;;
24745;SDS011;12845;52.042;6.838;2022-12-24T07:53:53;42.45;;;16.35;;
24745;SDS011;12845;52.042;6.838;2022-12-24T07:56:18;44.92;;;17.60;;
24745;SDS011;12845;52.042;6.838;2022-12-24T07:58:44;34.13;;;15.40;;
24745;SDS011;12845;52.042;6.838;2022-12-24T08:01:09;35.28;;;14.90;;
24745;SDS011;12845;52.042;6.838;2022-12-24T08:03:37;36.58;;;13.77;;
24745;SDS011;12845;52.042;6.838;2022-12-24T08:06:03;37.38;;;14.05;;
24745;SDS011;12845;52.042;6.838;2022-12-24T08:08:28;42.78;;;15.15;;
24745;SDS011;12845;52.042;6.838;2022-12-24T08:10:58;39.30;;;16.13;;
24745;SDS011;12845;52.042;6.838;2022-12-24T08:13:26;41.90;;;16.05;;
24745;SDS011;12845;52.042;6.838;2022-12-24T08:15:52;36.38;;;12.57;;
24745;SDS011;12845;52.042;6.838;2022-12-24T08:18:17;40.10;;;15.98;;
24745;SDS011;12845;52.042;6.838;2022-12-24T08:20:42;50.03;;;15.85;;
24745;SDS011;12845;52.042;6.838;2022-12-24T08:23:08;45.65;;;17.13;;
24745;SDS011;12845;52.042;6.838;2022-12-24T08:25:33;36.17;;;15.05;;
24745;SDS011;12845;52.042;6.838;2022-12-24T08:27:59;42.67;;;15.52;;
24745;SDS011;12845;52.042;6.838;2022-12-24T08:30:25;37.40;;;13.52;;
24745;SDS011;12845;52.042;6.838;2022-12-24T08:32:50;41.00;;;14.15;;
24745;SDS011;12845;52.042;6.838;2022-12-24T08:35:15;36.72;;;14.40;;
24745;SDS011;12845;52.042;6.838;2022-12-24T08:37:41;34.53;;;14.40;;
24745;SDS011;12845;52.042;6.838;2022-12-24T08:40:06;44.92;;;16.48;;
24745;SDS011;12845;52.042;6.838;2022-12-24T08:42:32;36.00;;;15.32;;
24745;SDS011;12845;52.042;6.838;2022-12-24T08:44:57;40.35;;;17.63;;
24745;SDS011;12845;52.042;6.838;2022-12-24T08:47:22;47.97;;;17.58;;
24745;SDS011;12845;52.042;6.838;2022-12-24T08:49:48;47.92;;;14.23;;
24745;SDS011;12845;52.042;6.838;2022-12-24T08:52:13;37.80;;;16.48;;
24745;SDS011;12845;52.042;6.838;2022-12-24T08:54:38;43.70;;;15.70;;
24745;SDS011;12845;52.042;6.838;2022-12-24T08:57:04;36.53;;;12.48;;
24745;SDS011;12845;52.042;6.838;2022-12-24T08:59:29;50.15;;;15.25;;
24745;SDS011;12845;52.042;6.838;2022-12-24T09:01:54;43.40;;;15.27;;
24745;SDS011;12845;52.042;6.838;2022-12-24T09:04:20;43.50;;;14.88;;
24745;SDS011;12845;52.042;6.838;2022-12-24T09:06:45;29.05;;;12.80;;
24745;SDS011;12845;52.042;6.838;2022-12-24T09:09:10;46.80;;;14.55;;
24745;SDS011;12845;52.042;6.838;2022-12-24T09:11:36;33.80;;;13.73;;
24745;SDS011;12845;52.042;6.838;2022-12-24T09:14:01;38.10;;;12.93;;
24745;SDS011;12845;52.042;6.838;2022-12-24T09:16:26;35.63;;;14.13;;
24745;SDS011;12845;52.042;6.838;2022-12-24T09:18:52;39.15;;;13.05;;
24745;SDS011;12845;52.042;6.838;2022-12-24T09:21:17;36.00;;;11.50;;
24745;SDS011;12845;52.042;6.838;2022-12-24T09:23:44;32.55;;;13.10;;
24745;SDS011;12845;52.042;6.838;2022-12-24T09:26:13;38.72;;;14.27;;
24745;SDS011;12845;52.042;6.838;2022-12-24T09:31:05;47.53;;;13.82;;
24745;SDS011;12845;52.042;6.838;2022-12-24T09:33:32;39.10;;;14.32;;
24745;SDS011;12845;52.042;6.838;2022-12-24T09:35:59;32.78;;;13.90;;
24745;SDS011;12845;52.042;6.838;2022-12-24T09:38:25;36.55;;;12.57;;
24745;SDS011;12845;52.042;6.838;2022-12-24T09:40:51;28.25;;;11.80;;
24745;SDS011;12845;52.042;6.838;2022-12-24T09:43:22;41.70;;;13.85;;
24745;SDS011;12845;52.042;6.838;2022-12-24T09:48:24;33.25;;;11.10;;
24745;SDS011;12845;52.042;6.838;2022-12-24T09:51:02;34.95;;;13.82;;
24745;SDS011;12845;52.042;6.838;2022-12-24T09:56:16;28.42;;;10.90;;
24745;SDS011;12845;52.042;6.838;2022-12-24T09:58:48;46.17;;;15.48;;
24745;SDS011;12845;52.042;6.838;2022-12-24T10:01:18;40.92;;;13.30;;
24745;SDS011;12845;52.042;6.838;2022-12-24T10:03:44;32.35;;;10.35;;
24745;SDS011;12845;52.042;6.838;2022-12-24T10:11:25;34.25;;;11.85;;
24745;SDS011;12845;52.042;6.838;2022-12-24T10:14:10;36.30;;;12.80;;
24745;SDS011;12845;52.042;6.838;2022-12-24T10:16:44;44.92;;;15.20;;
24745;SDS011;12845;52.042;6.838;2022-12-24T10:24:37;33.17;;;13.25;;
24745;SDS011;12845;52.042;6.838;2022-12-24T10:27:11;40.42;;;13.70;;
24745;SDS011;12845;52.042;6.838;2022-12-24T10:29:41;34.35;;;13.13;;
24745;SDS011;12845;52.042;6.838;2022-12-24T10:34:56;38.70;;;13.35;;
24745;SDS011;12845;52.042;6.838;2022-12-24T10:37:26;37.08;;;13.45;;
24745;SDS011;12845;52.042;6.838;2022-12-24T10:39:54;39.00;;;13.43;;
24745;SDS011;12845;52.042;6.838;2022-12-24T10:42:22;36.15;;;12.98;;
24745;SDS011;12845;52.042;6.838;2022-12-24T10:44:51;44.55;;;14.38;;
24745;SDS011;12845;52.042;6.838;2022-12-24T10:47:21;34.05;;;13.35;;
24745;SDS011;12845;52.042;6.838;2022-12-24T10:49:49;36.17;;;13.93;;
24745;SDS011;12845;52.042;6.838;2022-12-24T10:52:21;31.30;;;13.38;;
24745;SDS011;12845;52.042;6.838;2022-12-24T10:55:05;37.63;;;14.23;;
24745;SDS011;12845;52.042;6.838;2022-12-24T10:57:36;38.85;;;13.85;;
24745;SDS011;12845;52.042;6.838;2022-12-24T11:00:02;36.80;;;12.43;;
24745;SDS011;12845;52.042;6.838;2022-12-24T11:04:55;36.22;;;13.30;;
24745;SDS011;12845;52.042;6.838;2022-12-24T11:07:23;37.80;;;13.15;;
24745;SDS011;12845;52.042;6.838;2022-12-24T11:12:22;38.20;;;13.10;;
24745;SDS011;12845;52.042;6.838;2022-12-24T11:14:58;33.90;;;11.32;;
24745;SDS011;12845;52.042;6.838;2022-12-24T11:17:26;32.80;;;10.07;;
24745;SDS011;12845;52.042;6.838;2022-12-24T11:19:52;38.35;;;12.90;;
24745;SDS011;12845;52.042;6.838;2022-12-24T11:22:18;34.17;;;10.00;;
24745;SDS011;12845;52.042;6.838;2022-12-24T11:24:46;29.85;;;11.18;;
24745;SDS011;12845;52.042;6.838;2022-12-24T11:32:43;21.65;;;7.97;;
24745;SDS011;12845;52.042;6.838;2022-12-24T11:35:20;25.38;;;9.45;;
24745;SDS011;12845;52.042;6.838;2022-12-24T11:37:48;36.85;;;8.90;;
24745;SDS011;12845;52.042;6.838;2022-12-24T11:40:34;24.95;;;7.32;;
24745;SDS011;12845;52.042;6.838;2022-12-24T11:43:15;30.65;;;7.45;;
24745;SDS011;12845;52.042;6.838;2022-12-24T11:45:50;33.47;;;9.10;;
24745;SDS011;12845;52.042;6.838;2022-12-24T11:50:54;21.45;;;6.90;;
24745;SDS011;12845;52.042;6.838;2022-12-24T11:53:21;30.63;;;8.23;;
24745;SDS011;12845;52.042;6.838;2022-12-24T11:55:52;33.00;;;8.23;;
24745;SDS011;12845;52.042;6.838;2022-12-24T11:58:30;27.55;;;8.68;;
24745;SDS011;12845;52.042;6.838;2022-12-24T12:03:35;24.33;;;5.93;;
24745;SDS011;12845;52.042;6.838;2022-12-24T12:06:07;28.98;;;6.75;;
24745;SDS011;12845;52.042;6.838;2022-12-24T12:08:48;28.60;;;8.02;;
24745;SDS011;12845;52.042;6.838;2022-12-24T12:11:18;22.27;;;6.68;;
24745;SDS011;12845;52.042;6.838;2022-12-24T12:13:45;34.53;;;8.55;;
24745;SDS011;12845;52.042;6.838;2022-12-24T12:18:56;29.95;;;7.68;;
24745;SDS011;12845;52.042;6.838;2022-12-24T12:22:00;24.10;;;5.63;;
24745;SDS011;12845;52.042;6.838;2022-12-24T12:24:20;29.67;;;6.95;;
24745;SDS011;12845;52.042;6.838;2022-12-24T12:26:56;26.17;;;6.70;;
24745;SDS011;12845;52.042;6.838;2022-12-24T12:29:35;26.98;;;5.82;;
24745;SDS011;12845;52.042;6.838;2022-12-24T12:32:07;23.25;;;6.45;;
24745;SDS011;12845;52.042;6.838;2022-12-24T12:34:54;26.00;;;6.20;;
24745;SDS011;12845;52.042;6.838;2022-12-24T12:37:30;15.15;;;4.88;;
24745;SDS011;12845;52.042;6.838;2022-12-24T12:40:01;29.25;;;6.47;;
24745;SDS011;12845;52.042;6.838;2022-12-24T12:42:33;26.70;;;5.82;;
24745;SDS011;12845;52.042;6.838;2022-12-24T12:55:59;23.15;;;5.68;;
24745;SDS011;12845;52.042;6.838;2022-12-24T12:58:35;21.33;;;5.82;;
24745;SDS011;12845;52.042;6.838;2022-12-24T13:01:14;23.67;;;5.55;;
24745;SDS011;12845;52.042;6.838;2022-12-24T13:14:32;24.33;;;6.93;;
24745;SDS011;12845;52.042;6.838;2022-12-24T13:22:16;21.88;;;4.85;;
24745;SDS011;12845;52.042;6.838;2022-12-24T13:24:49;22.48;;;4.38;;
24745;SDS011;12845;52.042;6.838;2022-12-24T13:27:22;18.98;;;4.15;;
24745;SDS011;12845;52.042;6.838;2022-12-24T13:29:58;24.73;;;6.50;;
24745;SDS011;12845;52.042;6.838;2022-12-24T13:45:45;22.25;;;4.85;;
24745;SDS011;12845;52.042;6.838;2022-12-24T13:48:20;15.30;;;3.70;;
24745;SDS011;12845;52.042;6.838;2022-12-24T13:50:52;15.98;;;4.13;;
24745;SDS011;12845;52.042;6.838;2022-12-24T13:53:26;15.70;;;3.53;;
24745;SDS011;12845;52.042;6.838;2022-12-24T13:55:58;21.92;;;3.88;;
24745;SDS011;12845;52.042;6.838;2022-12-24T13:58:50;18.30;;;3.80;;
24745;SDS011;12845;52.042;6.838;2022-12-24T14:01:31;17.88;;;3.85;;
24745;SDS011;12845;52.042;6.838;2022-12-24T14:04:01;16.60;;;3.38;;
24745;SDS011;12845;52.042;6.838;2022-12-24T14:06:30;16.75;;;4.97;;
24745;SDS011;12845;52.042;6.838;2022-12-24T14:09:06;16.55;;;4.00;;
24745;SDS011;12845;52.042;6.838;2022-12-24T14:16:52;16.20;;;4.00;;
24745;SDS011;12845;52.042;6.838;2022-12-24T14:19:24;15.13;;;4.80;;
24745;SDS011;12845;52.042;6.838;2022-12-24T14:25:18;12.38;;;3.78;;
24745;SDS011;12845;52.042;6.838;2022-12-24T14:27:54;15.05;;;4.40;;
24745;SDS011;12845;52.042;6.838;2022-12-24T14:30:25;24.27;;;4.80;;
24745;SDS011;12845;52.042;6.838;2022-12-24T14:32:52;17.88;;;4.57;;
24745;SDS011;12845;52.042;6.838;2022-12-24T14:35:19;15.02;;;4.25;;
24745;SDS011;12845;52.042;6.838;2022-12-24T14:38:00;20.42;;;3.75;;
24745;SDS011;12845;52.042;6.838;2022-12-24T14:40:32;18.33;;;5.20;;
24745;SDS011;12845;52.042;6.838;2022-12-24T14:43:06;20.92;;;4.65;;
24745;SDS011;12845;52.042;6.838;2022-12-24T14:45:49;13.80;;;3.58;;
24745;SDS011;12845;52.042;6.838;2022-12-24T14:51:10;23.40;;;5.43;;
24745;SDS011;12845;52.042;6.838;2022-12-24T14:59:42;19.83;;;5.53;;
24745;SDS011;12845;52.042;6.838;2022-12-24T15:02:28;27.90;;;7.30;;
24745;SDS011;12845;52.042;6.838;2022-12-24T15:05:03;20.85;;;4.53;;
24745;SDS011;12845;52.042;6.838;2022-12-24T15:10:34;25.80;;;5.30;;
24745;SDS011;12845;52.042;6.838;2022-12-24T15:13:03;25.92;;;6.63;;
24745;SDS011;12845;52.042;6.838;2022-12-24T15:15:29;21.58;;;5.20;;
24745;SDS011;12845;52.042;6.838;2022-12-24T15:17:54;16.95;;;4.72;;
24745;SDS011;12845;52.042;6.838;2022-12-24T15:20:23;23.75;;;7.05;;
24745;SDS011;12845;52.042;6.838;2022-12-24T15:22:51;24.25;;;6.30;;
24745;SDS011;12845;52.042;6.838;2022-12-24T15:25:22;23.48;;;5.20;;
24745;SDS011;12845;52.042;6.838;2022-12-24T15:27:50;16.15;;;4.68;;
24745;SDS011;12845;52.042;6.838;2022-12-24T15:30:18;23.30;;;6.63;;
24745;SDS011;12845;52.042;6.838;2022-12-24T15:32:43;22.50;;;5.95;;
24745;SDS011;12845;52.042;6.838;2022-12-24T15:35:32;15.93;;;5.63;;
24745;SDS011;12845;52.042;6.838;2022-12-24T15:40:47;22.75;;;6.22;;
24745;SDS011;12845;52.042;6.838;2022-12-24T15:43:14;27.65;;;7.22;;
24745;SDS011;12845;52.042;6.838;2022-12-24T15:45:41;21.33;;;6.93;;
24745;SDS011;12845;52.042;6.838;2022-12-24T15:48:10;25.90;;;7.20;;
24745;SDS011;12845;52.042;6.838;2022-12-24T15:50:42;26.00;;;8.20;;
24745;SDS011;12845;52.042;6.838;2022-12-24T15:53:13;29.10;;;7.78;;
24745;SDS011;12845;52.042;6.838;2022-12-24T15:55:43;19.67;;;8.20;;
24745;SDS011;12845;52.042;6.838;2022-12-24T15:58:22;26.85;;;7.88;;
24745;SDS011;12845;52.042;6.838;2022-12-24T16:00:59;23.67;;;6.28;;
24745;SDS011;12845;52.042;6.838;2022-12-24T16:03:26;20.52;;;7.10;;
24745;SDS011;12845;52.042;6.838;2022-12-24T16:08:32;25.33;;;8.48;;
24745;SDS011;12845;52.042;6.838;2022-12-24T16:11:10;28.65;;;8.60;;
24745;SDS011;12845;52.042;6.838;2022-12-24T16:16:15;29.77;;;9.75;;
24745;SDS011;12845;52.042;6.838;2022-12-24T16:21:36;31.70;;;11.45;;
24745;SDS011;12845;52.042;6.838;2022-12-24T16:24:05;27.23;;;11.07;;
24745;SDS011;12845;52.042;6.838;2022-12-24T16:26:32;27.13;;;11.88;;
24745;SDS011;12845;52.042;6.838;2022-12-24T16:28:58;31.55;;;12.23;;
24745;SDS011;12845;52.042;6.838;2022-12-24T16:31:34;30.45;;;12.57;;
24745;SDS011;12845;52.042;6.838;2022-12-24T16:34:03;27.67;;;13.27;;
24745;SDS011;12845;52.042;6.838;2022-12-24T16:36:29;25.25;;;13.18;;
24745;SDS011;12845;52.042;6.838;2022-12-24T16:38:56;25.02;;;12.57;;
24745;SDS011;12845;52.042;6.838;2022-12-24T16:41:40;27.52;;;12.65;;
24745;SDS011;12845;52.042;6.838;2022-12-24T16:44:24;36.95;;;14.98;;
24745;SDS011;12845;52.042;6.838;2022-12-24T16:46:51;34.88;;;14.13;;
24745;SDS011;12845;52.042;6.838;2022-12-24T16:49:17;32.55;;;15.00;;